sensor_id;sensor_type;location;lat;lon;timestamp;pressure;altitude;pressure_sealevel;temperature;humidity
53550;BME280;67273;52.914;-0.982;2023-03-26T00:01:53;99995.56;;;17.38;44.36
53550;BME280;67273;52.914;-0.982;2023-03-26T00:04:18;99995.56;;;17.38;44.29
53550;BME280;67273;52.914;-0.982;2023-03-26T00:06:46;99985.75;;;17.37;44.30
53550;BME280;67273;52.914;-0.982;2023-03-26T00:09:15;99992.84;;;17.38;44.32
53550;BME280;67273;52.914;-0.982;2023-03-26T00:11:41;99975.97;;;17.36;44.21
53550;BME280;67273;52.914;-0.982;2023-03-26T00:14:08;99975.97;;;17.36;44.18
53550;BME280;67273;52.914;-0.982;2023-03-26T00:16:34;99973.25;;;17.36;44.01
53550;BME280;67273;52.914;-0.982;2023-03-26T00:19:01;99969.69;;;17.35;44.23
53550;BME280;67273;52.914;-0.982;2023-03-26T00:21:28;99962.66;;;17.34;44.25
53550;BME280;67273;52.914;-0.982;2023-03-26T00:23:55;99968.06;;;17.34;44.26
53550;BME280;67273;52.914;-0.982;2023-03-26T00:26:24;99967.22;;;17.34;44.25
53550;BME280;67273;52.914;-0.982;2023-03-26T00:28:50;99964.50;;;17.34;44.12
53550;BME280;67273;52.914;-0.982;2023-03-26T00:31:16;99960.97;;;17.33;44.24
53550;BME280;67273;52.914;-0.982;2023-03-26T00:33:43;99962.06;;;17.32;44.20
53550;BME280;67273;52.914;-0.982;2023-03-26T00:36:11;99965.59;;;17.33;44.13
53550;BME280;67273;52.914;-0.982;2023-03-26T00:38:39;99959.34;;;17.32;44.12
53550;BME280;67273;52.914;-0.982;2023-03-26T00:41:07;99957.69;;;17.31;44.07
53550;BME280;67273;52.914;-0.982;2023-03-26T00:43:44;99959.59;;;17.31;44.26
53550;BME280;67273;52.914;-0.982;2023-03-26T00:46:13;99949.78;;;17.29;44.09
53550;BME280;67273;52.914;-0.982;2023-03-26T00:48:39;99949.78;;;17.29;44.29
53550;BME280;67273;52.914;-0.982;2023-03-26T00:51:07;99952.50;;;17.29;43.99
53550;BME280;67273;52.914;-0.982;2023-03-26T00:53:33;99952.50;;;17.29;44.40
53550;BME280;67273;52.914;-0.982;2023-03-26T00:55:59;99946.50;;;17.27;44.16
53550;BME280;67273;52.914;-0.982;2023-03-26T00:58:25;99950.03;;;17.28;44.15
53550;BME280;67273;52.914;-0.982;2023-03-26T01:00:55;99946.50;;;17.27;44.08
53550;BME280;67273;52.914;-0.982;2023-03-26T01:03:23;99941.09;;;17.27;44.23
53550;BME280;67273;52.914;-0.982;2023-03-26T01:05:51;99944.59;;;17.28;44.11
53550;BME280;67273;52.914;-0.982;2023-03-26T01:08:29;99937.78;;;17.25;44.21
53550;BME280;67273;52.914;-0.982;2023-03-26T01:10:58;99943.22;;;17.25;44.41
53550;BME280;67273;52.914;-0.982;2023-03-26T01:13:35;99935.09;;;17.25;44.32
53550;BME280;67273;52.914;-0.982;2023-03-26T01:16:08;99925.28;;;17.24;44.16
53550;BME280;67273;52.914;-0.982;2023-03-26T01:18:45;99931.53;;;17.25;44.39
53550;BME280;67273;52.914;-0.982;2023-03-26T01:21:11;99933.41;;;17.24;44.22
53550;BME280;67273;52.914;-0.982;2023-03-26T01:23:42;99941.56;;;17.24;44.08
53550;BME280;67273;52.914;-0.982;2023-03-26T01:26:19;99934.50;;;17.23;44.19
53550;BME280;67273;52.914;-0.982;2023-03-26T01:28:50;99929.09;;;17.23;44.32
53550;BME280;67273;52.914;-0.982;2023-03-26T01:31:24;99929.31;;;17.22;44.40
53550;BME280;67273;52.914;-0.982;2023-03-26T01:33:57;99927.41;;;17.22;44.52
53550;BME280;67273;52.914;-0.982;2023-03-26T01:36:32;99920.34;;;17.21;44.15
53550;BME280;67273;52.914;-0.982;2023-03-26T01:39:03;99920.34;;;17.21;44.16
53550;BME280;67273;52.914;-0.982;2023-03-26T01:41:41;99923.06;;;17.21;44.32
53550;BME280;67273;52.914;-0.982;2023-03-26T01:44:14;99924.13;;;17.20;44.50
53550;BME280;67273;52.914;-0.982;2023-03-26T01:46:45;99925.75;;;17.21;44.50
53550;BME280;67273;52.914;-0.982;2023-03-26T01:49:12;99919.53;;;17.21;44.27
53550;BME280;67273;52.914;-0.982;2023-03-26T01:51:39;99915.19;;;17.20;44.15
53550;BME280;67273;52.914;-0.982;2023-03-26T01:54:08;99913.53;;;17.19;44.34
53550;BME280;67273;52.914;-0.982;2023-03-26T01:56:44;99911.63;;;17.19;44.37
53550;BME280;67273;52.914;-0.982;2023-03-26T01:59:24;99910.81;;;17.19;44.21
53550;BME280;67273;52.914;-0.982;2023-03-26T02:01:59;99905.38;;;17.19;44.40
53550;BME280;67273;52.914;-0.982;2023-03-26T02:04:31;99903.72;;;17.18;44.22
53550;BME280;67273;52.914;-0.982;2023-03-26T02:07:02;99900.19;;;17.17;44.29
53550;BME280;67273;52.914;-0.982;2023-03-26T02:09:34;99904.56;;;17.18;44.40
53550;BME280;67273;52.914;-0.982;2023-03-26T02:12:06;99897.47;;;17.17;44.35
53550;BME280;67273;52.914;-0.982;2023-03-26T02:14:34;99904.81;;;17.17;44.33
53550;BME280;67273;52.914;-0.982;2023-03-26T02:17:00;99901.28;;;17.16;44.24
53550;BME280;67273;52.914;-0.982;2023-03-26T02:19:26;99895.84;;;17.16;44.48
53550;BME280;67273;52.914;-0.982;2023-03-26T02:21:52;99901.28;;;17.16;44.37
53550;BME280;67273;52.914;-0.982;2023-03-26T02:24:25;99899.63;;;17.15;44.44
53550;BME280;67273;52.914;-0.982;2023-03-26T02:26:54;99888.78;;;17.15;44.22
53550;BME280;67273;52.914;-0.982;2023-03-26T02:29:22;99883.59;;;17.14;44.32
53550;BME280;67273;52.914;-0.982;2023-03-26T02:31:48;99881.69;;;17.14;44.42
53550;BME280;67273;52.914;-0.982;2023-03-26T02:34:15;99884.41;;;17.14;44.28
53550;BME280;67273;52.914;-0.982;2023-03-26T02:36:48;99884.41;;;17.14;44.32
53550;BME280;67273;52.914;-0.982;2023-03-26T02:39:14;99883.59;;;17.14;44.35
53550;BME280;67273;52.914;-0.982;2023-03-26T02:41:47;99870.25;;;17.12;44.31
53550;BME280;67273;52.914;-0.982;2023-03-26T02:44:13;99877.34;;;17.13;44.18
53550;BME280;67273;52.914;-0.982;2023-03-26T02:47:00;99880.06;;;17.13;44.31
53550;BME280;67273;52.914;-0.982;2023-03-26T02:49:44;99876.53;;;17.13;44.44
53550;BME280;67273;52.914;-0.982;2023-03-26T02:52:15;99878.41;;;17.12;44.17
53550;BME280;67273;52.914;-0.982;2023-03-26T02:54:44;99875.69;;;17.12;44.17
53550;BME280;67273;52.914;-0.982;2023-03-26T02:57:17;99872.97;;;17.12;44.25
53550;BME280;67273;52.914;-0.982;2023-03-26T03:00:04;99864.81;;;17.12;44.47
53550;BME280;67273;52.914;-0.982;2023-03-26T03:02:47;99859.66;;;17.10;44.37
53550;BME280;67273;52.914;-0.982;2023-03-26T03:05:19;99854.22;;;17.10;44.42
53550;BME280;67273;52.914;-0.982;2023-03-26T03:07:50;99858.03;;;17.09;44.49
53550;BME280;67273;52.914;-0.982;2023-03-26T03:10:20;99846.34;;;17.09;44.42
53550;BME280;67273;52.914;-0.982;2023-03-26T03:13:03;99843.63;;;17.09;44.14
53550;BME280;67273;52.914;-0.982;2023-03-26T03:15:32;99843.63;;;17.09;44.34
53550;BME280;67273;52.914;-0.982;2023-03-26T03:18:01;99841.97;;;17.08;44.42
53550;BME280;67273;52.914;-0.982;2023-03-26T03:20:30;99850.13;;;17.08;44.10
53550;BME280;67273;52.914;-0.982;2023-03-26T03:22:59;99843.88;;;17.07;44.19
53550;BME280;67273;52.914;-0.982;2023-03-26T03:25:26;99858.25;;;17.08;44.23
53550;BME280;67273;52.914;-0.982;2023-03-26T03:27:53;99862.03;;;17.07;44.40
53550;BME280;67273;52.914;-0.982;2023-03-26T03:30:24;99863.94;;;17.06;44.35
53550;BME280;67273;52.914;-0.982;2023-03-26T03:33:16;99853.06;;;17.06;44.33
53550;BME280;67273;52.914;-0.982;2023-03-26T03:35:52;99851.19;;;17.07;44.40
53550;BME280;67273;52.914;-0.982;2023-03-26T03:38:21;99857.69;;;17.06;44.40
53550;BME280;67273;52.914;-0.982;2023-03-26T03:40:53;99856.84;;;17.05;44.38
53550;BME280;67273;52.914;-0.982;2023-03-26T03:43:26;99856.03;;;17.05;44.28
53550;BME280;67273;52.914;-0.982;2023-03-26T03:46:02;99854.13;;;17.05;44.51
53550;BME280;67273;52.914;-0.982;2023-03-26T03:48:50;99863.13;;;17.06;44.30
53550;BME280;67273;52.914;-0.982;2023-03-26T03:51:21;99866.06;;;17.04;44.46
53550;BME280;67273;52.914;-0.982;2023-03-26T03:53:55;99860.66;;;17.04;44.59
53550;BME280;67273;52.914;-0.982;2023-03-26T03:56:45;99857.13;;;17.04;44.45
53550;BME280;67273;52.914;-0.982;2023-03-26T03:59:11;99854.41;;;17.04;44.46
53550;BME280;67273;52.914;-0.982;2023-03-26T04:01:37;99860.91;;;17.03;44.30
53550;BME280;67273;52.914;-0.982;2023-03-26T04:04:08;99862.56;;;17.04;44.36
53550;BME280;67273;52.914;-0.982;2023-03-26T04:06:49;99864.41;;;17.03;44.25
53550;BME280;67273;52.914;-0.982;2023-03-26T04:09:15;99862.78;;;17.02;44.50
53550;BME280;67273;52.914;-0.982;2023-03-26T04:11:43;99861.94;;;17.02;44.57
53550;BME280;67273;52.914;-0.982;2023-03-26T04:14:30;99862.78;;;17.02;44.47
53550;BME280;67273;52.914;-0.982;2023-03-26T04:16:58;99863.59;;;17.03;44.65
53550;BME280;67273;52.914;-0.982;2023-03-26T04:19:26;99865.50;;;17.02;44.63
53550;BME280;67273;52.914;-0.982;2023-03-26T04:21:53;99867.38;;;17.02;44.63
53550;BME280;67273;52.914;-0.982;2023-03-26T04:24:19;99870.09;;;17.02;44.47
53550;BME280;67273;52.914;-0.982;2023-03-26T04:27:15;99862.22;;;17.00;44.44
53550;BME280;67273;52.914;-0.982;2023-03-26T04:29:45;99865.75;;;17.01;44.34
53550;BME280;67273;52.914;-0.982;2023-03-26T04:32:21;99864.09;;;17.00;44.36
53550;BME280;67273;52.914;-0.982;2023-03-26T04:34:51;99864.09;;;17.00;44.56
53550;BME280;67273;52.914;-0.982;2023-03-26T04:37:24;99864.09;;;17.00;44.37
53550;BME280;67273;52.914;-0.982;2023-03-26T04:40:04;99866.00;;;16.99;44.55
53550;BME280;67273;52.914;-0.982;2023-03-26T04:42:38;99867.91;;;16.99;44.45
53550;BME280;67273;52.914;-0.982;2023-03-26T04:45:30;99869.53;;;17.00;44.55
53550;BME280;67273;52.914;-0.982;2023-03-26T04:47:57;99870.59;;;16.99;44.42
53550;BME280;67273;52.914;-0.982;2023-03-26T04:50:25;99874.38;;;16.98;44.61
53550;BME280;67273;52.914;-0.982;2023-03-26T04:52:53;99871.66;;;16.98;44.63
53550;BME280;67273;52.914;-0.982;2023-03-26T04:55:58;99874.38;;;16.98;44.34
53550;BME280;67273;52.914;-0.982;2023-03-26T04:58:53;99882.53;;;16.98;44.53
53550;BME280;67273;52.914;-0.982;2023-03-26T05:01:25;99880.03;;;16.96;44.35
53550;BME280;67273;52.914;-0.982;2023-03-26T05:03:53;99873.81;;;16.96;44.57
53550;BME280;67273;52.914;-0.982;2023-03-26T05:06:20;99874.63;;;16.96;44.52
53550;BME280;67273;52.914;-0.982;2023-03-26T05:08:47;99881.94;;;16.96;44.62
53550;BME280;67273;52.914;-0.982;2023-03-26T05:11:28;99877.56;;;16.95;44.42
53550;BME280;67273;52.914;-0.982;2023-03-26T05:13:53;99876.53;;;16.96;44.57
53550;BME280;67273;52.914;-0.982;2023-03-26T05:16:21;99882.19;;;16.94;44.46
53550;BME280;67273;52.914;-0.982;2023-03-26T05:18:56;99884.09;;;16.94;44.32
53550;BME280;67273;52.914;-0.982;2023-03-26T05:21:25;99892.22;;;16.94;44.32
53550;BME280;67273;52.914;-0.982;2023-03-26T05:23:50;99893.03;;;16.94;44.61
53550;BME280;67273;52.914;-0.982;2023-03-26T05:26:18;99885.16;;;16.92;44.59
53550;BME280;67273;52.914;-0.982;2023-03-26T05:28:44;99887.88;;;16.92;44.59
53550;BME280;67273;52.914;-0.982;2023-03-26T05:31:23;99885.16;;;16.92;44.71
53550;BME280;67273;52.914;-0.982;2023-03-26T05:33:53;99893.28;;;16.92;44.58
53550;BME280;67273;52.914;-0.982;2023-03-26T05:36:20;99894.38;;;16.91;44.55
53550;BME280;67273;52.914;-0.982;2023-03-26T05:38:51;99894.38;;;16.91;44.40
53550;BME280;67273;52.914;-0.982;2023-03-26T05:41:53;99892.72;;;16.90;44.73
53550;BME280;67273;52.914;-0.982;2023-03-26T05:44:21;99900.03;;;16.90;44.66
53550;BME280;67273;52.914;-0.982;2023-03-26T05:46:47;99909.81;;;16.91;44.63
53550;BME280;67273;52.914;-0.982;2023-03-26T05:49:19;99904.66;;;16.89;44.53
53550;BME280;67273;52.914;-0.982;2023-03-26T05:51:45;99907.38;;;16.89;44.71
53550;BME280;67273;52.914;-0.982;2023-03-26T05:54:32;99903.81;;;16.89;44.56
53550;BME280;67273;52.914;-0.982;2023-03-26T05:57:19;99913.84;;;16.88;44.78
53550;BME280;67273;52.914;-0.982;2023-03-26T06:00:06;99914.66;;;16.89;44.67
53550;BME280;67273;52.914;-0.982;2023-03-26T06:02:42;99922.00;;;16.88;44.53
53550;BME280;67273;52.914;-0.982;2023-03-26T06:05:31;99920.34;;;16.87;44.76
53550;BME280;67273;52.914;-0.982;2023-03-26T06:08:28;99928.47;;;16.87;44.57
53550;BME280;67273;52.914;-0.982;2023-03-26T06:11:00;99931.19;;;16.87;44.61
53550;BME280;67273;52.914;-0.982;2023-03-26T06:13:27;99936.59;;;16.87;44.55
53550;BME280;67273;52.914;-0.982;2023-03-26T06:15:58;99933.91;;;16.87;44.50
53550;BME280;67273;52.914;-0.982;2023-03-26T06:18:42;99948.53;;;16.86;44.79
53550;BME280;67273;52.914;-0.982;2023-03-26T06:21:31;99949.59;;;16.85;44.50
53550;BME280;67273;52.914;-0.982;2023-03-26T06:24:13;99955.03;;;16.85;44.51
53550;BME280;67273;52.914;-0.982;2023-03-26T06:26:59;99955.03;;;16.85;44.50
53550;BME280;67273;52.914;-0.982;2023-03-26T06:29:45;99964.25;;;16.84;44.71
53550;BME280;67273;52.914;-0.982;2023-03-26T06:32:13;99969.69;;;16.84;44.64
53550;BME280;67273;52.914;-0.982;2023-03-26T06:35:08;99975.09;;;16.84;44.58
53550;BME280;67273;52.914;-0.982;2023-03-26T06:37:38;99980.53;;;16.84;44.75
53550;BME280;67273;52.914;-0.982;2023-03-26T06:40:05;99988.66;;;16.84;44.52
53550;BME280;67273;52.914;-0.982;2023-03-26T06:42:53;99989.72;;;16.83;44.73
53550;BME280;67273;52.914;-0.982;2023-03-26T06:45:49;99995.16;;;16.83;44.51
53550;BME280;67273;52.914;-0.982;2023-03-26T06:48:42;99993.47;;;16.82;44.76
53550;BME280;67273;52.914;-0.982;2023-03-26T06:51:31;99998.88;;;16.82;44.57
53550;BME280;67273;52.914;-0.982;2023-03-26T06:54:29;100001.59;;;16.82;44.58
53550;BME280;67273;52.914;-0.982;2023-03-26T06:57:05;100013.53;;;16.81;44.80
53550;BME280;67273;52.914;-0.982;2023-03-26T07:00:04;100024.38;;;16.81;44.43
53550;BME280;67273;52.914;-0.982;2023-03-26T07:02:52;100030.63;;;16.82;44.59
53550;BME280;67273;52.914;-0.982;2023-03-26T07:05:40;100032.53;;;16.81;44.57
53550;BME280;67273;52.914;-0.982;2023-03-26T07:08:18;100043.38;;;16.81;44.63
53550;BME280;67273;52.914;-0.982;2023-03-26T07:11:05;100047.13;;;16.80;44.67
53550;BME280;67273;52.914;-0.982;2023-03-26T07:13:33;100058.84;;;16.81;44.49
53550;BME280;67273;52.914;-0.982;2023-03-26T07:16:30;100056.34;;;16.79;44.63
53550;BME280;67273;52.914;-0.982;2023-03-26T07:19:08;100066.13;;;16.80;44.83
53550;BME280;67273;52.914;-0.982;2023-03-26T07:21:41;100064.50;;;16.79;44.71
53550;BME280;67273;52.914;-0.982;2023-03-26T07:24:31;100068.03;;;16.80;44.77
53550;BME280;67273;52.914;-0.982;2023-03-26T07:27:11;100080.78;;;16.79;44.46
53550;BME280;67273;52.914;-0.982;2023-03-26T07:29:45;100081.81;;;16.78;44.71
53550;BME280;67273;52.914;-0.982;2023-03-26T07:33:00;100088.06;;;16.79;44.60
53550;BME280;67273;52.914;-0.982;2023-03-26T07:35:51;100088.06;;;16.79;44.49
53550;BME280;67273;52.914;-0.982;2023-03-26T07:38:48;100091.88;;;16.78;44.49
53550;BME280;67273;52.914;-0.982;2023-03-26T07:41:44;100095.41;;;16.78;44.62
53550;BME280;67273;52.914;-0.982;2023-03-26T07:44:52;100098.09;;;16.78;44.71
53550;BME280;67273;52.914;-0.982;2023-03-26T07:48:00;100111.66;;;16.78;44.63
53550;BME280;67273;52.914;-0.982;2023-03-26T07:50:56;100127.13;;;16.78;44.56
53550;BME280;67273;52.914;-0.982;2023-03-26T07:53:39;100122.53;;;16.78;44.76
53550;BME280;67273;52.914;-0.982;2023-03-26T07:56:31;100131.75;;;16.77;44.63
53550;BME280;67273;52.914;-0.982;2023-03-26T07:59:19;100141.75;;;16.77;44.49
53550;BME280;67273;52.914;-0.982;2023-03-26T08:02:42;100142.81;;;16.76;44.73
53550;BME280;67273;52.914;-0.982;2023-03-26T08:05:47;100158.03;;;16.77;44.37
53550;BME280;67273;52.914;-0.982;2023-03-26T08:08:28;100160.75;;;16.77;44.72
53550;BME280;67273;52.914;-0.982;2023-03-26T08:11:31;100145.53;;;16.76;44.83
53550;BME280;67273;52.914;-0.982;2023-03-26T08:14:13;100153.69;;;16.76;44.70
53550;BME280;67273;52.914;-0.982;2023-03-26T08:16:44;100160.75;;;16.77;44.68
53550;BME280;67273;52.914;-0.982;2023-03-26T08:19:33;100160.97;;;16.75;44.60
53550;BME280;67273;52.914;-0.982;2023-03-26T08:22:12;100175.38;;;16.76;44.63
53550;BME280;67273;52.914;-0.982;2023-03-26T08:24:57;100176.44;;;16.75;44.84
53550;BME280;67273;52.914;-0.982;2023-03-26T08:27:35;100182.44;;;16.77;44.63
53550;BME280;67273;52.914;-0.982;2023-03-26T08:30:08;100187.06;;;16.76;44.44
53550;BME280;67273;52.914;-0.982;2023-03-26T08:32:40;100195.19;;;16.76;44.86
53550;BME280;67273;52.914;-0.982;2023-03-26T08:35:10;100195.19;;;16.76;44.56
53550;BME280;67273;52.914;-0.982;2023-03-26T08:37:43;100208.75;;;16.76;44.79
53550;BME280;67273;52.914;-0.982;2023-03-26T08:43:38;100215.84;;;16.77;44.74
53550;BME280;67273;52.914;-0.982;2023-03-26T08:46:28;100223.97;;;16.77;44.87
53550;BME280;67273;52.914;-0.982;2023-03-26T08:55:41;100233.16;;;16.76;44.69
53550;BME280;67273;52.914;-0.982;2023-03-26T09:01:50;100248.63;;;16.76;44.79
53550;BME280;67273;52.914;-0.982;2023-03-26T09:04:36;100260.28;;;16.76;44.83
53550;BME280;67273;52.914;-0.982;2023-03-26T09:13:54;100276.56;;;16.76;44.46
53550;BME280;67273;52.914;-0.982;2023-03-26T09:22:52;100294.50;;;16.77;44.38
53550;BME280;67273;52.914;-0.982;2023-03-26T09:25:44;100295.56;;;16.76;44.56
53550;BME280;67273;52.914;-0.982;2023-03-26T09:32:11;100309.94;;;16.77;44.70
53550;BME280;67273;52.914;-0.982;2023-03-26T09:35:09;100315.38;;;16.77;44.44
53550;BME280;67273;52.914;-0.982;2023-03-26T09:40:36;100328.13;;;16.76;44.52
53550;BME280;67273;52.914;-0.982;2023-03-26T09:43:35;100326.44;;;16.75;44.63
53550;BME280;67273;52.914;-0.982;2023-03-26T09:46:20;100337.31;;;16.75;44.44
53550;BME280;67273;52.914;-0.982;2023-03-26T09:49:07;100342.72;;;16.75;44.38
53550;BME280;67273;52.914;-0.982;2023-03-26T09:51:59;100340.88;;;16.76;44.40
53550;BME280;67273;52.914;-0.982;2023-03-26T09:54:45;100355.25;;;16.76;44.48
53550;BME280;67273;52.914;-0.982;2023-03-26T09:57:35;100356.28;;;16.75;44.52
53550;BME280;67273;52.914;-0.982;2023-03-26T10:00:20;100368.81;;;16.76;44.43
53550;BME280;67273;52.914;-0.982;2023-03-26T10:03:20;100362.78;;;16.74;44.71
53550;BME280;67273;52.914;-0.982;2023-03-26T10:09:07;100391.56;;;16.75;44.64
53550;BME280;67273;52.914;-0.982;2023-03-26T10:11:56;100393.47;;;16.75;44.58
53550;BME280;67273;52.914;-0.982;2023-03-26T10:14:30;100398.06;;;16.74;44.65
53550;BME280;67273;52.914;-0.982;2023-03-26T10:17:16;100398.88;;;16.75;44.43
53550;BME280;67273;52.914;-0.982;2023-03-26T10:20:00;100406.78;;;16.76;44.75
53550;BME280;67273;52.914;-0.982;2023-03-26T10:22:47;100414.94;;;16.76;44.27
53550;BME280;67273;52.914;-0.982;2023-03-26T10:25:42;100417.66;;;16.76;44.30
53550;BME280;67273;52.914;-0.982;2023-03-26T10:31:39;100432.03;;;16.77;44.39
53550;BME280;67273;52.914;-0.982;2023-03-26T10:34:28;100433.94;;;16.76;44.33
53550;BME280;67273;52.914;-0.982;2023-03-26T10:37:07;100446.44;;;16.77;44.36
53550;BME280;67273;52.914;-0.982;2023-03-26T10:40:12;100450.78;;;16.78;44.41
53550;BME280;67273;52.914;-0.982;2023-03-26T10:43:12;100462.72;;;16.77;44.47
53550;BME280;67273;52.914;-0.982;2023-03-26T10:46:00;100464.59;;;16.77;44.57
53550;BME280;67273;52.914;-0.982;2023-03-26T10:48:49;100471.91;;;16.76;44.43
53550;BME280;67273;52.914;-0.982;2023-03-26T10:51:41;100480.28;;;16.75;44.44
53550;BME280;67273;52.914;-0.982;2023-03-26T10:54:16;100476.75;;;16.74;44.79
53550;BME280;67273;52.914;-0.982;2023-03-26T10:56:53;100484.88;;;16.74;44.37
53550;BME280;67273;52.914;-0.982;2023-03-26T10:59:29;100486.53;;;16.75;44.60
53550;BME280;67273;52.914;-0.982;2023-03-26T11:02:09;100491.13;;;16.75;44.30
53550;BME280;67273;52.914;-0.982;2023-03-26T11:04:53;100486.53;;;16.75;44.33
53550;BME280;67273;52.914;-0.982;2023-03-26T11:07:29;100499.03;;;16.76;44.32
53550;BME280;67273;52.914;-0.982;2023-03-26T11:10:10;100505.28;;;16.77;44.30
53550;BME280;67273;52.914;-0.982;2023-03-26T11:12:55;100517.81;;;16.78;44.49
53550;BME280;67273;52.914;-0.982;2023-03-26T11:15:29;100526.16;;;16.76;44.49
53550;BME280;67273;52.914;-0.982;2023-03-26T11:18:05;100527.84;;;16.77;44.23
53550;BME280;67273;52.914;-0.982;2023-03-26T11:20:40;100535.13;;;16.77;44.25
53550;BME280;67273;52.914;-0.982;2023-03-26T11:23:24;100535.97;;;16.77;44.36
53550;BME280;67273;52.914;-0.982;2023-03-26T11:26:06;100552.25;;;16.77;44.43
53550;BME280;67273;52.914;-0.982;2023-03-26T11:29:04;100546.81;;;16.77;44.35
53550;BME280;67273;52.914;-0.982;2023-03-26T11:31:50;100554.97;;;16.77;44.29
53550;BME280;67273;52.914;-0.982;2023-03-26T11:34:29;100564.97;;;16.77;44.41
53550;BME280;67273;52.914;-0.982;2023-03-26T11:37:02;100568.53;;;16.77;44.36
53550;BME280;67273;52.914;-0.982;2023-03-26T11:39:40;100579.38;;;16.77;44.05
53550;BME280;67273;52.914;-0.982;2023-03-26T11:42:14;100582.09;;;16.77;44.18
53550;BME280;67273;52.914;-0.982;2023-03-26T11:44:54;100582.09;;;16.77;44.30
53550;BME280;67273;52.914;-0.982;2023-03-26T11:47:39;100587.53;;;16.77;44.50
53550;BME280;67273;52.914;-0.982;2023-03-26T11:50:17;100594.81;;;16.77;44.19
53550;BME280;67273;52.914;-0.982;2023-03-26T11:52:50;100594.81;;;16.77;44.31
53550;BME280;67273;52.914;-0.982;2023-03-26T11:55:20;100604.63;;;16.78;44.28
53550;BME280;67273;52.914;-0.982;2023-03-26T11:57:53;100611.94;;;16.77;44.35
53550;BME280;67273;52.914;-0.982;2023-03-26T12:00:23;100613.81;;;16.77;44.35
53550;BME280;67273;52.914;-0.982;2023-03-26T12:02:56;100627.16;;;16.78;44.38
53550;BME280;67273;52.914;-0.982;2023-03-26T12:05:28;100627.16;;;16.78;44.37
53550;BME280;67273;52.914;-0.982;2023-03-26T12:08:16;100631.75;;;16.78;44.11
53550;BME280;67273;52.914;-0.982;2023-03-26T12:11:01;100638.00;;;16.78;44.43
53550;BME280;67273;52.914;-0.982;2023-03-26T12:13:38;100638.00;;;16.78;44.16
53550;BME280;67273;52.914;-0.982;2023-03-26T12:16:17;100644.25;;;16.79;44.13
53550;BME280;67273;52.914;-0.982;2023-03-26T12:18:57;100656.78;;;16.80;44.08
53550;BME280;67273;52.914;-0.982;2023-03-26T12:21:28;100661.38;;;16.79;44.23
53550;BME280;67273;52.914;-0.982;2023-03-26T12:23:58;100664.09;;;16.79;44.35
53550;BME280;67273;52.914;-0.982;2023-03-26T12:26:38;100661.38;;;16.79;44.15
53550;BME280;67273;52.914;-0.982;2023-03-26T12:29:13;100671.38;;;16.79;44.15
53550;BME280;67273;52.914;-0.982;2023-03-26T12:32:11;100681.19;;;16.80;44.09
53550;BME280;67273;52.914;-0.982;2023-03-26T12:34:43;100688.50;;;16.79;44.25
53550;BME280;67273;52.914;-0.982;2023-03-26T12:37:33;100692.03;;;16.80;44.31
53550;BME280;67273;52.914;-0.982;2023-03-26T12:40:27;100697.47;;;16.80;44.11
53550;BME280;67273;52.914;-0.982;2023-03-26T12:43:05;100710.22;;;16.79;44.19
53550;BME280;67273;52.914;-0.982;2023-03-26T12:45:55;100712.94;;;16.79;44.29
53550;BME280;67273;52.914;-0.982;2023-03-26T12:48:25;100716.69;;;16.78;44.28
53550;BME280;67273;52.914;-0.982;2023-03-26T12:51:04;100718.34;;;16.79;44.29
53550;BME280;67273;52.914;-0.982;2023-03-26T12:53:50;100722.72;;;16.80;44.23
53550;BME280;67273;52.914;-0.982;2023-03-26T12:56:29;100721.06;;;16.79;44.18
53550;BME280;67273;52.914;-0.982;2023-03-26T12:59:19;100735.22;;;16.81;44.39
53550;BME280;67273;52.914;-0.982;2023-03-26T13:02:00;100729.22;;;16.79;44.04
53550;BME280;67273;52.914;-0.982;2023-03-26T13:05:03;100732.75;;;16.80;44.27
53550;BME280;67273;52.914;-0.982;2023-03-26T13:07:46;100735.47;;;16.80;44.33
53550;BME280;67273;52.914;-0.982;2023-03-26T13:16:34;100736.06;;;16.82;44.32
53550;BME280;67273;52.914;-0.982;2023-03-26T13:19:09;100742.56;;;16.81;44.07
53550;BME280;67273;52.914;-0.982;2023-03-26T13:21:50;100749.84;;;16.80;44.29
53550;BME280;67273;52.914;-0.982;2023-03-26T13:24:33;100750.69;;;16.81;44.27
53550;BME280;67273;52.914;-0.982;2023-03-26T13:27:17;100756.94;;;16.81;44.29
53550;BME280;67273;52.914;-0.982;2023-03-26T13:29:55;100764.25;;;16.81;44.18
53550;BME280;67273;52.914;-0.982;2023-03-26T13:32:37;100771.56;;;16.80;44.33
53550;BME280;67273;52.914;-0.982;2023-03-26T13:35:20;100782.41;;;16.80;44.30
53550;BME280;67273;52.914;-0.982;2023-03-26T13:37:57;100787.84;;;16.80;44.11
53550;BME280;67273;52.914;-0.982;2023-03-26T13:40:35;100795.97;;;16.80;44.40
53550;BME280;67273;52.914;-0.982;2023-03-26T13:43:23;100809.53;;;16.80;44.23
53550;BME280;67273;52.914;-0.982;2023-03-26T13:46:01;100813.09;;;16.81;44.04
53550;BME280;67273;52.914;-0.982;2023-03-26T13:48:40;100816.63;;;16.81;44.20
53550;BME280;67273;52.914;-0.982;2023-03-26T13:51:14;100819.34;;;16.81;44.38
53550;BME280;67273;52.914;-0.982;2023-03-26T13:53:52;100820.41;;;16.80;44.23
53550;BME280;67273;52.914;-0.982;2023-03-26T13:56:28;100820.41;;;16.80;44.20
53550;BME280;67273;52.914;-0.982;2023-03-26T13:59:04;100821.47;;;16.79;44.12
53550;BME280;67273;52.914;-0.982;2023-03-26T14:01:37;100834.19;;;16.79;43.99
53550;BME280;67273;52.914;-0.982;2023-03-26T14:04:16;100832.53;;;16.78;44.23
53550;BME280;67273;52.914;-0.982;2023-03-26T14:06:51;100844.22;;;16.78;44.47
53550;BME280;67273;52.914;-0.982;2023-03-26T14:09:33;100833.56;;;16.77;44.02
53550;BME280;67273;52.914;-0.982;2023-03-26T14:12:31;100835.47;;;16.76;44.02
53550;BME280;67273;52.914;-0.982;2023-03-26T14:15:06;100845.50;;;16.76;44.24
53550;BME280;67273;52.914;-0.982;2023-03-26T14:17:46;100846.31;;;16.76;44.05
53550;BME280;67273;52.914;-0.982;2023-03-26T14:20:54;100849.84;;;16.77;44.30
53550;BME280;67273;52.914;-0.982;2023-03-26T14:26:43;100863.41;;;16.77;44.26
53550;BME280;67273;52.914;-0.982;2023-03-26T14:29:29;100867.00;;;16.77;44.05
53550;BME280;67273;52.914;-0.982;2023-03-26T14:32:14;100874.28;;;16.77;44.06